createdAt,value
2023-04-27T00:02:08.017Z,6.50
2023-04-27T00:04:34.985Z,6.60
2023-04-27T00:07:01.889Z,6.50
2023-04-27T00:09:28.427Z,6.50
2023-04-27T00:11:55.212Z,6.50
2023-04-27T00:14:23.125Z,6.50
2023-04-27T00:16:57.973Z,6.50
2023-04-27T00:19:28.589Z,6.60
2023-04-27T00:21:55.404Z,6.50
2023-04-27T00:24:22.014Z,6.60
2023-04-27T00:26:48.853Z,6.60
2023-04-27T00:29:15.684Z,6.50
2023-04-27T00:31:42.968Z,6.60
2023-04-27T00:34:09.778Z,6.40
2023-04-27T00:36:36.994Z,6.50
2023-04-27T00:39:04.080Z,6.30
2023-04-27T00:41:30.633Z,6.30
2023-04-27T00:43:59.778Z,6.50
2023-04-27T00:46:28.199Z,6.50
2023-04-27T00:48:57.484Z,6.40
2023-04-27T00:51:28.101Z,6.30
2023-04-27T00:53:54.908Z,6.30
2023-04-27T00:56:21.791Z,6.30
2023-04-27T00:58:51.407Z,6.20
2023-04-27T01:01:20.813Z,6.20
2023-04-27T01:03:47.673Z,6.20
2023-04-27T01:06:14.724Z,6.30
2023-04-27T01:08:41.536Z,6.40
2023-04-27T01:11:08.149Z,6.50
2023-04-27T01:13:34.582Z,6.40
2023-04-27T01:16:01.572Z,6.40
2023-04-27T01:18:31.883Z,6.30
2023-04-27T01:21:02.463Z,6.30
2023-04-27T01:23:29.005Z,6.40
2023-04-27T01:25:57.593Z,6.30
2023-04-27T01:28:24.126Z,6.20
2023-04-27T01:30:50.716Z,6.20
2023-04-27T01:33:17.228Z,6.30
2023-04-27T01:35:44.936Z,6.20
2023-04-27T01:38:11.480Z,6.30
2023-04-27T01:40:38.203Z,6.30
2023-04-27T01:43:04.947Z,6.20
2023-04-27T01:45:33.023Z,6.20
2023-04-27T01:48:00.246Z,6.30
2023-04-27T01:50:27.456Z,6.30
2023-04-27T01:52:54.081Z,6.30
2023-04-27T01:55:20.583Z,6.40
2023-04-27T01:57:47.284Z,6.10
2023-04-27T02:00:15.956Z,6.10
2023-04-27T02:02:42.638Z,6.10
2023-04-27T02:05:10.288Z,6.20
2023-04-27T02:07:36.754Z,6.10
2023-04-27T02:10:03.472Z,6.30
2023-04-27T02:12:29.953Z,6.30
2023-04-27T02:14:56.700Z,6.20
2023-04-27T02:17:24.298Z,6.20
2023-04-27T02:19:50.981Z,6.10
2023-04-27T02:22:17.603Z,6.00
2023-04-27T02:24:44.424Z,6.10
2023-04-27T02:27:10.924Z,6.10
2023-04-27T02:29:39.125Z,6.10
2023-04-27T02:32:06.930Z,6.20
2023-04-27T02:34:35.164Z,6.20
2023-04-27T02:37:01.800Z,6.30
2023-04-27T02:39:28.352Z,6.10
2023-04-27T02:41:56.616Z,6.20
2023-04-27T02:44:23.839Z,6.10
2023-04-27T02:46:51.226Z,5.90
2023-04-27T02:49:17.973Z,6.00
2023-04-27T02:51:44.760Z,6.00
2023-04-27T02:54:11.649Z,6.00
2023-04-27T02:56:39.722Z,6.10
2023-04-27T02:59:07.166Z,6.00
2023-04-27T03:01:34.332Z,6.10
2023-04-27T03:04:00.994Z,6.00
2023-04-27T03:06:27.987Z,6.00
2023-04-27T03:08:54.569Z,6.20
2023-04-27T03:11:21.299Z,6.00
2023-04-27T03:13:49.106Z,6.00
2023-04-27T03:16:15.788Z,6.00
2023-04-27T03:18:44.184Z,5.80
2023-04-27T03:21:12.711Z,6.10
2023-04-27T03:23:45.972Z,6.00
2023-04-27T03:26:14.415Z,6.00
2023-04-27T03:28:41.973Z,6.10
2023-04-27T03:31:11.035Z,6.10
2023-04-27T03:33:38.289Z,6.00
2023-04-27T03:36:06.652Z,6.10
2023-04-27T03:38:33.677Z,6.00
2023-04-27T03:41:00.216Z,6.10
2023-04-27T03:43:27.173Z,6.10
2023-04-27T03:45:53.902Z,6.10
2023-04-27T03:48:21.053Z,5.80
2023-04-27T03:50:47.572Z,5.80
2023-04-27T03:53:18.971Z,5.80
2023-04-27T03:55:45.977Z,5.80
2023-04-27T03:58:12.483Z,5.80
2023-04-27T04:00:39.597Z,5.90
2023-04-27T04:03:06.991Z,5.90
2023-04-27T04:05:34.087Z,6.00
2023-04-27T04:08:00.907Z,6.00
2023-04-27T04:10:27.642Z,6.00
2023-04-27T04:12:54.350Z,5.90
2023-04-27T04:15:21.366Z,5.80
2023-04-27T04:17:49.571Z,5.90
2023-04-27T04:20:16.289Z,6.00
2023-04-27T04:22:43.504Z,6.00
2023-04-27T04:25:11.439Z,6.10
2023-04-27T04:27:38.058Z,6.10
2023-04-27T04:30:06.603Z,6.20
2023-04-27T04:32:34.099Z,6.10
2023-04-27T04:35:05.084Z,6.20
2023-04-27T04:37:34.751Z,6.20
2023-04-27T04:40:08.859Z,6.30
2023-04-27T04:42:38.610Z,6.50
2023-04-27T04:45:05.992Z,6.40
2023-04-27T04:47:32.791Z,6.40
2023-04-27T04:49:59.419Z,6.30
2023-04-27T04:52:26.135Z,6.30
2023-04-27T04:54:55.962Z,6.30
2023-04-27T04:57:22.396Z,6.50
2023-04-27T04:59:48.909Z,6.40
2023-04-27T05:02:16.545Z,6.70
2023-04-27T05:04:43.545Z,6.70
2023-04-27T05:07:14.546Z,6.50
2023-04-27T05:09:43.187Z,6.50
2023-04-27T05:12:10.114Z,6.70
2023-04-27T05:14:39.512Z,7.00
2023-04-27T05:17:06.811Z,6.80
2023-04-27T05:19:34.776Z,7.00
2023-04-27T05:22:01.462Z,7.00
2023-04-27T05:24:28.010Z,7.00
2023-04-27T05:26:55.090Z,7.00
2023-04-27T05:29:22.350Z,7.10
2023-04-27T05:31:49.354Z,7.10
2023-04-27T05:34:17.195Z,7.20
2023-04-27T05:36:43.951Z,7.30
2023-04-27T05:39:10.592Z,7.30
2023-04-27T05:41:37.851Z,7.30
2023-04-27T05:44:10.105Z,7.20
2023-04-27T05:46:38.922Z,7.00
2023-04-27T05:49:05.905Z,7.00
2023-04-27T05:51:33.327Z,7.30
2023-04-27T05:54:05.358Z,7.40
2023-04-27T05:56:33.366Z,7.50
2023-04-27T05:59:02.395Z,7.50
2023-04-27T06:01:30.272Z,8.00
2023-04-27T06:04:02.939Z,9.20
2023-04-27T06:06:32.525Z,9.90
2023-04-27T06:08:59.025Z,10.60
2023-04-27T06:11:26.055Z,12.00
2023-04-27T06:13:52.861Z,13.10
2023-04-27T06:16:19.735Z,15.90
2023-04-27T06:18:46.618Z,18.20
2023-04-27T06:21:13.128Z,17.70
2023-04-27T06:23:39.632Z,17.80
2023-04-27T06:26:07.336Z,18.30
2023-04-27T06:28:34.118Z,19.60
2023-04-27T06:31:03.350Z,19.00
2023-04-27T06:33:29.912Z,18.50
2023-04-27T06:35:56.465Z,19.60
2023-04-27T06:38:23.240Z,19.10
2023-04-27T06:40:54.262Z,18.20
2023-04-27T06:43:22.073Z,20.80
2023-04-27T06:45:49.413Z,17.50
2023-04-27T06:48:17.548Z,16.70
2023-04-27T06:50:43.996Z,19.60
2023-04-27T06:53:11.208Z,19.70
2023-04-27T06:55:37.770Z,20.10
2023-04-27T06:58:07.405Z,21.20
2023-04-27T07:00:34.183Z,18.90
2023-04-27T07:03:01.400Z,19.00
2023-04-27T07:05:28.025Z,19.70
2023-04-27T07:07:54.533Z,18.40
2023-04-27T07:10:21.567Z,16.60
2023-04-27T07:12:48.306Z,15.70
2023-04-27T07:15:15.576Z,14.80
2023-04-27T07:17:42.226Z,14.60
2023-04-27T07:20:09.072Z,14.00
2023-04-27T07:22:35.656Z,14.30
2023-04-27T07:25:02.171Z,13.70
2023-04-27T07:27:29.017Z,14.50
2023-04-27T07:29:55.747Z,16.00
2023-04-27T07:32:22.965Z,16.40
2023-04-27T07:34:54.529Z,16.40
2023-04-27T07:37:22.120Z,17.40
2023-04-27T07:39:50.369Z,15.50
2023-04-27T07:42:17.269Z,15.40
2023-04-27T07:44:44.773Z,15.90
2023-04-27T07:47:11.355Z,16.50
2023-04-27T07:49:38.355Z,15.90
2023-04-27T07:52:05.174Z,18.00
2023-04-27T07:54:31.754Z,17.70
2023-04-27T07:56:58.851Z,19.30
2023-04-27T07:59:29.140Z,18.60
2023-04-27T08:02:04.064Z,18.20
2023-04-27T08:04:39.736Z,18.40
2023-04-27T08:07:07.216Z,17.50
2023-04-27T08:09:34.394Z,15.80
2023-04-27T08:12:04.141Z,18.80
2023-04-27T08:14:30.656Z,22.90
2023-04-27T08:16:57.597Z,22.30
2023-04-27T08:19:24.429Z,18.90
2023-04-27T08:21:50.950Z,15.80
2023-04-27T08:24:18.029Z,13.60
2023-04-27T08:26:45.043Z,13.30
2023-04-27T08:29:23.617Z,13.00
2023-04-27T08:31:56.452Z,15.60
2023-04-27T08:34:24.419Z,16.10
2023-04-27T08:36:51.466Z,16.30
2023-04-27T08:39:18.373Z,19.40
2023-04-27T08:41:45.105Z,18.80
2023-04-27T08:44:12.240Z,19.40
2023-04-27T08:46:39.762Z,21.40
2023-04-27T08:49:08.015Z,20.90
2023-04-27T08:51:35.444Z,19.20
2023-04-27T08:54:02.688Z,17.20
2023-04-27T08:56:30.295Z,15.70
2023-04-27T08:58:58.052Z,15.20
2023-04-27T09:01:26.817Z,14.00
2023-04-27T09:03:59.783Z,12.70
2023-04-27T09:06:35.245Z,12.40
2023-04-27T09:09:03.446Z,12.40
2023-04-27T09:11:38.393Z,12.10
2023-04-27T09:14:19.707Z,12.60
2023-04-27T09:16:46.541Z,15.80
2023-04-27T09:19:24.228Z,18.90
2023-04-27T09:21:51.975Z,18.60
2023-04-27T09:24:18.463Z,15.90
2023-04-27T09:26:49.905Z,15.30
2023-04-27T09:29:17.621Z,13.70
2023-04-27T09:31:44.150Z,13.30
2023-04-27T09:34:10.740Z,12.60
2023-04-27T09:36:38.027Z,13.00
2023-04-27T09:39:05.304Z,12.90
2023-04-27T09:41:33.378Z,12.70
2023-04-27T09:44:00.835Z,13.60
2023-04-27T09:46:28.762Z,16.10
2023-04-27T09:48:57.832Z,15.30
2023-04-27T09:51:24.673Z,16.30
2023-04-27T09:53:58.395Z,20.10
2023-04-27T09:57:13.168Z,19.50
2023-04-27T09:59:55.404Z,18.30
2023-04-27T10:02:25.664Z,16.90
2023-04-27T10:05:13.096Z,17.00
2023-04-27T10:07:41.269Z,16.10
2023-04-27T10:10:18.852Z,14.70
2023-04-27T10:12:56.545Z,14.40
2023-04-27T10:15:28.267Z,14.20
2023-04-27T10:17:59.060Z,14.80
2023-04-27T10:20:30.896Z,14.90
2023-04-27T10:23:00.415Z,18.90
2023-04-27T10:25:29.422Z,19.40
2023-04-27T10:28:17.172Z,17.90
2023-04-27T10:30:46.775Z,16.20
2023-04-27T10:33:17.053Z,16.60
2023-04-27T10:35:45.965Z,16.30
2023-04-27T10:38:17.519Z,15.50
2023-04-27T10:40:46.292Z,15.80
2023-04-27T10:43:16.317Z,15.50
2023-04-27T10:45:43.793Z,14.80
2023-04-27T10:48:16.131Z,14.60
2023-04-27T10:50:46.853Z,14.30
2023-04-27T10:53:16.138Z,14.20
2023-04-27T10:55:44.077Z,14.20
2023-04-27T10:58:10.692Z,14.10
2023-04-27T11:00:45.119Z,14.50
2023-04-27T11:03:18.517Z,15.20
2023-04-27T11:05:46.949Z,14.40
2023-04-27T11:08:17.817Z,15.60
2023-04-27T11:10:48.108Z,15.40
2023-04-27T11:13:23.209Z,16.30
2023-04-27T11:15:58.080Z,16.20
2023-04-27T11:18:31.926Z,16.50
2023-04-27T11:21:13.192Z,16.10
2023-04-27T11:23:40.798Z,15.40
2023-04-27T11:26:20.593Z,16.30
2023-04-27T11:29:05.591Z,15.80
2023-04-27T11:31:51.797Z,15.30
2023-04-27T11:34:26.464Z,15.00
2023-04-27T11:39:41.837Z,13.70
2023-04-27T11:42:26.156Z,13.60
2023-04-27T11:44:59.901Z,13.20
2023-04-27T11:47:28.454Z,13.50
2023-04-27T11:50:04.838Z,13.10
2023-04-27T11:52:33.221Z,13.10
2023-04-27T11:55:00.741Z,12.40
2023-04-27T11:57:29.472Z,12.80
2023-04-27T11:59:57.642Z,13.10
2023-04-27T12:02:24.231Z,13.30
2023-04-27T12:04:52.274Z,13.50
2023-04-27T12:07:21.157Z,13.60
2023-04-27T12:09:47.915Z,13.90
2023-04-27T12:12:21.612Z,14.30
2023-04-27T12:14:52.405Z,14.80
2023-04-27T12:17:19.636Z,14.60
2023-04-27T12:19:46.450Z,14.20
2023-04-27T12:22:13.856Z,13.60
2023-04-27T12:24:40.348Z,13.90
2023-04-27T12:27:07.748Z,13.90
2023-04-27T12:29:34.268Z,14.00
2023-04-27T12:32:01.181Z,14.40
2023-04-27T12:34:28.880Z,14.70
2023-04-27T12:36:55.836Z,15.70
2023-04-27T12:39:26.833Z,15.40
2023-04-27T12:41:54.014Z,15.60
2023-04-27T12:44:21.569Z,15.60
2023-04-27T12:46:48.960Z,15.30
2023-04-27T12:49:16.068Z,14.40
2023-04-27T12:51:45.746Z,15.30
2023-04-27T12:54:12.997Z,16.20
2023-04-27T12:56:40.185Z,15.80
2023-04-27T12:59:07.285Z,16.40
2023-04-27T13:01:34.038Z,16.40
2023-04-27T13:04:03.077Z,14.80
2023-04-27T13:06:31.613Z,14.60
2023-04-27T13:08:59.188Z,14.90
2023-04-27T13:11:26.228Z,14.80
2023-04-27T13:13:53.080Z,14.90
2023-04-27T13:16:22.044Z,15.00
2023-04-27T13:18:52.475Z,14.20
2023-04-27T13:21:21.911Z,14.30
2023-04-27T13:23:49.420Z,13.90
2023-04-27T13:26:16.683Z,13.90
2023-04-27T13:28:43.343Z,13.60
2023-04-27T13:31:10.298Z,13.20
2023-04-27T13:33:42.407Z,13.20
2023-04-27T13:36:13.003Z,13.30
2023-04-27T13:38:39.852Z,13.70
2023-04-27T13:41:07.529Z,13.70
2023-04-27T13:43:35.881Z,14.10
2023-04-27T13:46:03.208Z,13.80
2023-04-27T13:48:32.723Z,14.30
2023-04-27T13:50:59.225Z,14.20
2023-04-27T13:53:26.600Z,15.00
2023-04-27T13:55:55.128Z,14.70
2023-04-27T13:58:24.344Z,14.50
2023-04-27T14:00:53.533Z,14.30
2023-04-27T14:03:20.762Z,14.10
2023-04-27T14:05:49.049Z,13.60
2023-04-27T14:08:15.929Z,13.70
2023-04-27T14:10:42.663Z,14.00
2023-04-27T14:13:09.654Z,15.20
2023-04-27T14:15:37.101Z,15.30
2023-04-27T14:18:08.052Z,16.20
2023-04-27T14:20:35.809Z,17.10
2023-04-27T14:23:04.238Z,17.30
2023-04-27T14:25:33.169Z,16.80
2023-04-27T14:28:04.332Z,16.80
2023-04-27T14:30:34.063Z,15.80
2023-04-27T14:33:05.770Z,16.80
2023-04-27T14:35:35.609Z,16.20
2023-04-27T14:38:02.599Z,16.40
2023-04-27T14:40:30.225Z,15.30
2023-04-27T14:42:57.265Z,14.70
2023-04-27T14:45:39.785Z,14.30
2023-04-27T14:48:14.511Z,14.10
2023-04-27T14:50:41.114Z,13.60
2023-04-27T14:53:09.824Z,13.50
2023-04-27T14:55:36.912Z,14.10
2023-04-27T14:58:03.518Z,14.50
2023-04-27T15:00:30.071Z,14.60
2023-04-27T15:02:56.595Z,15.20
2023-04-27T15:05:23.401Z,14.90
2023-04-27T15:07:49.971Z,14.40
2023-04-27T15:10:16.490Z,15.20
2023-04-27T15:12:43.165Z,15.50
2023-04-27T15:15:10.694Z,15.40
2023-04-27T15:17:37.584Z,15.80
2023-04-27T15:20:10.941Z,16.20
2023-04-27T15:22:37.660Z,15.90
2023-04-27T15:25:06.680Z,15.80
2023-04-27T15:27:33.691Z,15.80
2023-04-27T15:30:01.305Z,15.70
2023-04-27T15:32:30.079Z,15.90
2023-04-27T15:35:00.296Z,15.90
2023-04-27T15:37:28.574Z,15.60
2023-04-27T15:39:56.132Z,15.20
2023-04-27T15:42:24.229Z,15.60
2023-04-27T15:44:51.060Z,14.90
2023-04-27T15:47:18.049Z,14.40
2023-04-27T15:49:56.283Z,15.10
2023-04-27T15:52:27.175Z,15.80
2023-04-27T15:54:54.362Z,15.50
2023-04-27T15:57:20.982Z,16.20
2023-04-27T15:59:47.548Z,16.90
2023-04-27T16:02:14.062Z,17.30
2023-04-27T16:04:40.655Z,17.40
2023-04-27T16:07:07.484Z,16.30
2023-04-27T16:09:34.150Z,15.10
2023-04-27T16:12:01.499Z,15.00
2023-04-27T16:14:28.030Z,14.80
2023-04-27T16:16:56.194Z,14.90
2023-04-27T16:19:23.602Z,14.40
2023-04-27T16:21:50.332Z,14.60
2023-04-27T16:24:16.876Z,14.20
2023-04-27T16:26:43.465Z,14.10
2023-04-27T16:29:10.061Z,14.10
2023-04-27T16:31:36.727Z,13.60
2023-04-27T16:34:03.987Z,13.60
2023-04-27T16:36:35.123Z,13.80
2023-04-27T16:39:03.118Z,13.90
2023-04-27T16:41:29.645Z,13.50
2023-04-27T16:43:58.598Z,13.40
2023-04-27T16:46:25.717Z,13.30
2023-04-27T16:48:54.870Z,13.30
2023-04-27T16:51:21.328Z,13.20
2023-04-27T16:53:47.830Z,13.20
2023-04-27T16:56:14.566Z,13.20
2023-04-27T16:58:41.555Z,13.00
2023-04-27T17:01:08.119Z,12.90
2023-04-27T17:03:38.934Z,12.80
2023-04-27T17:06:08.495Z,12.90
2023-04-27T17:08:35.043Z,12.60
2023-04-27T17:11:01.572Z,12.80
2023-04-27T17:13:28.435Z,12.80
2023-04-27T17:15:54.996Z,12.90
2023-04-27T17:18:25.689Z,12.80
2023-04-27T17:20:58.295Z,12.60
2023-04-27T17:23:28.192Z,12.60
2023-04-27T17:25:58.627Z,12.70
2023-04-27T17:28:25.344Z,12.40
2023-04-27T17:31:13.947Z,12.50
2023-04-27T17:33:40.566Z,12.40
2023-04-27T17:36:07.478Z,12.30
2023-04-27T17:38:36.656Z,12.30
2023-04-27T17:41:03.429Z,12.40
2023-04-27T17:43:29.899Z,12.30
2023-04-27T17:45:58.687Z,12.30
2023-04-27T17:48:25.206Z,12.10
2023-04-27T17:50:51.984Z,12.10
2023-04-27T17:53:18.797Z,11.80
2023-04-27T17:55:45.598Z,11.80
2023-04-27T17:58:12.221Z,11.70
2023-04-27T18:00:42.011Z,11.40
2023-04-27T18:03:08.586Z,11.30
2023-04-27T18:05:35.219Z,11.10
2023-04-27T18:08:01.730Z,11.00
2023-04-27T18:10:32.791Z,10.80
2023-04-27T18:12:59.304Z,10.60
2023-04-27T18:15:26.191Z,10.40
2023-04-27T18:17:52.717Z,10.10
2023-04-27T18:20:19.265Z,10.00
2023-04-27T18:22:46.276Z,9.80
2023-04-27T18:25:13.946Z,9.90
2023-04-27T18:27:45.461Z,9.60
2023-04-27T18:30:14.128Z,9.40
2023-04-27T18:32:44.411Z,9.40
2023-04-27T18:35:10.936Z,9.20
2023-04-27T18:37:37.439Z,9.20
2023-04-27T18:40:07.482Z,9.10
2023-04-27T18:42:33.974Z,9.00
2023-04-27T18:45:01.832Z,8.80
2023-04-27T18:47:29.940Z,8.70
2023-04-27T18:49:56.450Z,8.60
2023-04-27T18:52:23.159Z,8.50
2023-04-27T18:54:49.729Z,8.30
2023-04-27T18:57:16.369Z,8.20
2023-04-27T18:59:42.850Z,8.10
2023-04-27T19:02:09.316Z,8.00
2023-04-27T19:04:36.326Z,7.90
2023-04-27T19:07:03.425Z,7.90
2023-04-27T19:09:29.992Z,7.80
2023-04-27T19:12:02.749Z,7.70
2023-04-27T19:14:31.172Z,7.50
2023-04-27T19:16:57.877Z,7.40
2023-04-27T19:19:29.450Z,7.30
2023-04-27T19:21:57.345Z,7.10
2023-04-27T19:24:35.218Z,7.10
2023-04-27T19:27:17.041Z,7.10
2023-04-27T19:29:52.962Z,6.90
2023-04-27T19:32:20.397Z,6.90
2023-04-27T19:34:47.742Z,6.70
2023-04-27T19:37:14.895Z,6.70
2023-04-27T19:39:41.710Z,6.60
2023-04-27T19:42:08.388Z,6.60
2023-04-27T19:44:34.946Z,6.60
2023-04-27T19:47:01.755Z,6.50
2023-04-27T19:49:32.912Z,6.50
2023-04-27T19:52:00.566Z,6.30
2023-04-27T19:54:27.372Z,6.20
2023-04-27T19:56:54.343Z,6.20
2023-04-27T19:59:20.976Z,6.10
2023-04-27T20:01:48.479Z,5.90
2023-04-27T20:04:15.474Z,6.10
2023-04-27T20:06:43.316Z,6.00
2023-04-27T20:09:10.260Z,5.90
2023-04-27T20:11:36.810Z,5.80
2023-04-27T20:14:03.264Z,5.80
2023-04-27T20:16:29.858Z,5.70
2023-04-27T20:18:56.533Z,5.60
2023-04-27T20:21:24.648Z,5.60
2023-04-27T20:23:51.228Z,5.60
2023-04-27T20:26:17.996Z,5.50
2023-04-27T20:28:44.537Z,5.50
2023-04-27T20:31:11.081Z,5.50
2023-04-27T20:33:37.801Z,5.40
2023-04-27T20:36:14.134Z,5.40
2023-04-27T20:38:43.978Z,5.30
2023-04-27T20:41:12.493Z,5.20
2023-04-27T20:43:40.924Z,5.20
2023-04-27T20:46:08.538Z,5.00
2023-04-27T20:48:35.404Z,5.00
2023-04-27T20:51:02.542Z,5.00
2023-04-27T20:53:29.416Z,5.00
2023-04-27T20:55:56.450Z,4.90
2023-04-27T20:58:23.518Z,4.90
2023-04-27T21:00:50.080Z,4.80
2023-04-27T21:03:16.838Z,4.90
2023-04-27T21:05:44.294Z,4.90
2023-04-27T21:08:10.804Z,4.90
2023-04-27T21:10:37.344Z,4.80
2023-04-27T21:13:04.524Z,4.70
2023-04-27T21:15:31.178Z,4.70
2023-04-27T21:17:57.813Z,4.60
2023-04-27T21:20:27.435Z,4.60
2023-04-27T21:22:55.834Z,4.60
2023-04-27T21:25:24.363Z,4.70
2023-04-27T21:27:51.105Z,4.40
2023-04-27T21:30:18.645Z,4.50
2023-04-27T21:32:45.444Z,4.50
2023-04-27T21:35:12.056Z,4.40
2023-04-27T21:37:38.885Z,4.40
2023-04-27T21:40:06.383Z,4.30
2023-04-27T21:42:35.070Z,4.30
2023-04-27T21:45:04.643Z,4.30
2023-04-27T21:47:31.518Z,4.30
2023-04-27T21:49:58.021Z,4.20
2023-04-27T21:52:26.019Z,4.10
2023-04-27T21:54:53.036Z,4.10
2023-04-27T21:57:20.248Z,4.00
2023-04-27T21:59:47.164Z,4.10
2023-04-27T22:02:13.707Z,4.10
2023-04-27T22:04:40.752Z,4.00
2023-04-27T22:07:10.829Z,3.90
2023-04-27T22:09:37.556Z,3.90
2023-04-27T22:12:04.774Z,3.90
2023-04-27T22:14:32.576Z,3.80
2023-04-27T22:17:00.705Z,3.80
2023-04-27T22:19:28.954Z,3.80
2023-04-27T22:21:56.607Z,3.90
2023-04-27T22:24:23.689Z,3.80
2023-04-27T22:26:50.838Z,3.80
2023-04-27T22:29:17.652Z,3.80
2023-04-27T22:31:44.486Z,3.80
2023-04-27T22:34:14.134Z,3.70
2023-04-27T22:36:41.953Z,3.70
2023-04-27T22:39:10.141Z,3.70
2023-04-27T22:41:37.162Z,3.70
2023-04-27T22:44:07.074Z,3.70
2023-04-27T22:46:34.165Z,3.70
2023-04-27T22:49:01.720Z,3.50
2023-04-27T22:51:28.534Z,3.50
2023-04-27T22:53:55.069Z,3.60
2023-04-27T22:56:22.714Z,3.50
2023-04-27T22:58:51.646Z,3.50
2023-04-27T23:01:20.025Z,3.50
2023-04-27T23:03:46.603Z,3.50
2023-04-27T23:06:18.938Z,3.50
2023-04-27T23:08:47.110Z,3.50
2023-04-27T23:11:13.847Z,3.50
2023-04-27T23:13:40.340Z,3.40
2023-04-27T23:16:07.116Z,3.30
2023-04-27T23:18:33.958Z,3.40
2023-04-27T23:21:00.523Z,3.40
2023-04-27T23:23:27.022Z,3.30
2023-04-27T23:25:54.003Z,3.30
2023-04-27T23:28:21.123Z,3.30
2023-04-27T23:30:53.303Z,3.30
2023-04-27T23:33:20.152Z,3.20
2023-04-27T23:35:47.005Z,3.20
2023-04-27T23:38:13.978Z,3.20
2023-04-27T23:40:40.751Z,3.20
2023-04-27T23:43:07.832Z,3.10
2023-04-27T23:45:34.493Z,3.00
2023-04-27T23:48:01.077Z,3.00
2023-04-27T23:50:27.875Z,2.90
2023-04-27T23:52:54.384Z,2.90
2023-04-27T23:55:20.950Z,2.90
2023-04-27T23:57:47.710Z,2.90
